createdAt,value
2022-10-31T00:01:37.860Z,25.52
2022-10-31T00:04:45.827Z,22.17
2022-10-31T00:07:51.236Z,19.67
2022-10-31T00:10:56.630Z,28.92
2022-10-31T00:14:02.888Z,27.17
2022-10-31T00:17:08.008Z,31.60
2022-10-31T00:20:20.803Z,21.05
2022-10-31T00:23:26.026Z,31.23
2022-10-31T00:26:36.873Z,27.00
2022-10-31T00:29:43.249Z,26.63
2022-10-31T00:32:51.644Z,27.48
2022-10-31T00:36:15.897Z,22.30
2022-10-31T00:39:24.070Z,21.92
2022-10-31T00:42:31.676Z,21.90
2022-10-31T00:45:47.733Z,33.03
2022-10-31T00:48:55.609Z,21.20
2022-10-31T00:52:04.403Z,23.10
2022-10-31T00:55:30.110Z,29.77
2022-10-31T00:58:50.447Z,25.80
2022-10-31T01:02:03.561Z,24.15
2022-10-31T01:05:10.652Z,22.58
2022-10-31T01:08:46.954Z,22.92
2022-10-31T01:11:55.175Z,29.90
2022-10-31T01:15:08.306Z,25.25
2022-10-31T01:18:17.205Z,20.67
2022-10-31T01:21:28.331Z,21.85
2022-10-31T01:24:34.654Z,20.42
2022-10-31T01:28:01.123Z,27.52
2022-10-31T01:31:14.025Z,20.45
2022-10-31T01:34:20.317Z,32.08
2022-10-31T01:37:27.229Z,43.60
2022-10-31T01:40:35.524Z,30.27
2022-10-31T01:43:58.664Z,27.25
2022-10-31T01:50:34.231Z,31.48
2022-10-31T01:53:41.926Z,33.13
2022-10-31T01:56:53.593Z,31.83
2022-10-31T02:00:08.681Z,36.95
2022-10-31T02:03:18.942Z,22.95
2022-10-31T02:06:32.586Z,36.13
2022-10-31T02:09:38.809Z,39.75
2022-10-31T02:12:47.669Z,25.27
2022-10-31T02:15:54.545Z,40.55
2022-10-31T02:19:10.152Z,18.27
2022-10-31T02:22:20.653Z,22.73
2022-10-31T02:25:56.406Z,22.20
2022-10-31T02:29:20.107Z,21.40
2022-10-31T02:32:35.808Z,24.38
2022-10-31T02:35:48.437Z,23.27
2022-10-31T02:39:00.645Z,20.98
2022-10-31T02:42:11.892Z,21.27
2022-10-31T02:45:27.522Z,22.08
2022-10-31T02:48:37.523Z,18.00
2022-10-31T02:51:44.209Z,19.73
2022-10-31T02:54:50.811Z,19.48
2022-10-31T02:58:01.938Z,30.67
2022-10-31T03:01:14.639Z,28.15
2022-10-31T03:04:33.356Z,25.05
2022-10-31T03:07:47.125Z,21.77
2022-10-31T03:10:57.428Z,24.90
2022-10-31T03:14:07.847Z,28.90
2022-10-31T03:17:22.105Z,34.95
2022-10-31T03:20:41.642Z,31.33
2022-10-31T03:23:50.159Z,30.15
2022-10-31T03:27:01.840Z,22.58
2022-10-31T03:30:09.792Z,20.33
2022-10-31T03:33:19.764Z,24.70
2022-10-31T03:36:30.460Z,29.92
2022-10-31T03:39:39.539Z,31.30
2022-10-31T03:42:46.126Z,25.73
2022-10-31T03:45:54.606Z,26.98
2022-10-31T03:49:15.408Z,24.73
2022-10-31T03:52:34.107Z,28.52
2022-10-31T03:55:49.587Z,23.83
2022-10-31T03:59:03.774Z,29.13
2022-10-31T04:05:47.736Z,29.35
2022-10-31T04:09:04.620Z,29.73
2022-10-31T04:12:32.792Z,28.75
2022-10-31T04:15:45.556Z,25.38
2022-10-31T04:19:15.298Z,24.33
2022-10-31T04:30:10.874Z,30.30
2022-10-31T04:37:14.300Z,23.20
2022-10-31T04:40:43.549Z,36.33
2022-10-31T04:43:58.332Z,34.22
2022-10-31T04:47:45.279Z,20.67
2022-10-31T04:54:37.257Z,26.77
2022-10-31T05:15:50.288Z,28.92
2022-10-31T05:19:05.754Z,42.08
2022-10-31T05:22:20.144Z,25.23
2022-10-31T05:25:36.219Z,21.58
2022-10-31T05:28:45.978Z,25.17
2022-10-31T05:31:52.571Z,29.08
2022-10-31T05:35:02.317Z,20.42
2022-10-31T05:38:09.690Z,28.60
2022-10-31T05:41:20.467Z,28.10
2022-10-31T05:44:31.876Z,27.55
2022-10-31T05:47:43.553Z,25.88
2022-10-31T05:50:48.585Z,34.22
2022-10-31T05:53:55.965Z,26.95
2022-10-31T05:57:02.015Z,29.60
2022-10-31T06:00:22.202Z,27.58
2022-10-31T06:03:30.885Z,31.67
2022-10-31T06:06:43.545Z,26.23
2022-10-31T06:09:51.082Z,25.75
2022-10-31T06:12:59.963Z,27.90
2022-10-31T06:16:10.670Z,39.33
2022-10-31T06:19:18.354Z,31.13
2022-10-31T06:22:25.752Z,33.38
2022-10-31T06:25:31.382Z,31.27
2022-10-31T06:28:39.157Z,19.83
2022-10-31T06:31:48.601Z,23.90
2022-10-31T06:35:02.681Z,25.42
2022-10-31T06:38:11.764Z,24.35
2022-10-31T06:41:19.110Z,30.58
2022-10-31T06:44:25.065Z,25.85
2022-10-31T06:47:35.298Z,27.92
2022-10-31T06:51:04.875Z,22.83
2022-10-31T06:54:25.748Z,25.90
2022-10-31T06:57:34.704Z,25.88
2022-10-31T07:00:43.096Z,23.80
2022-10-31T07:03:51.516Z,21.70
2022-10-31T07:06:57.273Z,24.25
2022-10-31T07:10:03.937Z,25.42
2022-10-31T07:13:14.987Z,29.50
2022-10-31T07:16:21.114Z,26.13
2022-10-31T07:19:33.364Z,32.53
2022-10-31T07:22:41.428Z,24.83
2022-10-31T07:25:48.914Z,24.10
2022-10-31T07:29:00.494Z,20.52
2022-10-31T07:32:17.421Z,25.90
2022-10-31T07:38:49.632Z,27.27
2022-10-31T07:41:58.313Z,30.00
2022-10-31T07:45:04.409Z,23.60
2022-10-31T07:55:31.737Z,25.92
2022-10-31T07:58:58.430Z,26.80
2022-10-31T08:02:12.447Z,31.10
2022-10-31T08:05:34.060Z,25.48
2022-10-31T08:08:42.185Z,24.83
2022-10-31T08:11:51.045Z,30.58
2022-10-31T08:15:03.912Z,23.20
2022-10-31T08:18:12.549Z,26.92
2022-10-31T08:21:24.716Z,32.58
2022-10-31T08:24:34.647Z,20.33
2022-10-31T08:27:44.257Z,31.38
2022-10-31T08:30:51.922Z,26.33
2022-10-31T08:33:57.244Z,36.30
2022-10-31T08:37:09.683Z,32.60
2022-10-31T08:40:24.929Z,30.85
2022-10-31T08:43:33.785Z,27.10
2022-10-31T08:46:39.290Z,43.80
2022-10-31T08:49:55.765Z,23.30
2022-10-31T08:53:10.191Z,24.83
2022-10-31T08:56:25.678Z,30.05
2022-10-31T08:59:31.085Z,29.63
2022-10-31T09:02:43.381Z,30.45
2022-10-31T09:05:50.394Z,29.02
2022-10-31T09:08:58.061Z,23.45
2022-10-31T09:12:08.962Z,27.88
2022-10-31T09:15:16.831Z,28.52
2022-10-31T09:18:25.568Z,33.65
2022-10-31T09:21:34.955Z,24.60
2022-10-31T09:24:48.827Z,30.58
2022-10-31T09:28:00.039Z,30.98
2022-10-31T09:31:05.362Z,28.02
2022-10-31T09:34:11.598Z,28.35
2022-10-31T09:37:16.987Z,34.42
2022-10-31T09:40:24.388Z,25.80
2022-10-31T09:43:38.934Z,26.75
2022-10-31T09:46:49.818Z,37.30
2022-10-31T09:50:02.350Z,30.95
2022-10-31T09:53:09.931Z,29.90
2022-10-31T09:56:18.099Z,30.13
2022-10-31T09:59:32.678Z,29.13
2022-10-31T10:02:44.934Z,25.00
2022-10-31T10:05:53.749Z,25.52
2022-10-31T10:09:05.408Z,24.20
2022-10-31T10:15:44.742Z,22.85
2022-10-31T10:19:03.845Z,30.83
2022-10-31T10:22:16.865Z,22.48
2022-10-31T10:25:25.218Z,22.95
2022-10-31T10:28:34.884Z,23.33
2022-10-31T10:31:47.566Z,25.33
2022-10-31T10:34:57.907Z,23.30
2022-10-31T10:38:06.186Z,27.37
2022-10-31T10:41:17.460Z,24.65
2022-10-31T10:44:23.854Z,21.87
2022-10-31T10:47:45.233Z,23.13
2022-10-31T10:50:53.737Z,11.88
2022-10-31T10:54:10.427Z,10.20
2022-10-31T10:57:29.933Z,9.93
2022-10-31T11:00:36.188Z,11.95
2022-10-31T11:03:47.157Z,10.98
2022-10-31T11:07:02.849Z,10.85
2022-10-31T11:10:19.006Z,12.23
2022-10-31T11:13:29.100Z,12.00
2022-10-31T11:16:41.552Z,10.57
2022-10-31T11:19:51.395Z,9.80
2022-10-31T11:23:05.889Z,11.05
2022-10-31T11:26:22.792Z,11.75
2022-10-31T11:29:33.616Z,10.90
2022-10-31T11:32:39.097Z,11.20
2022-10-31T11:35:49.925Z,10.70
2022-10-31T11:39:00.743Z,10.30
2022-10-31T11:42:11.975Z,9.73
2022-10-31T11:45:19.138Z,12.05
2022-10-31T11:48:26.704Z,10.35
2022-10-31T11:51:39.235Z,9.80
2022-10-31T11:54:50.162Z,9.23
2022-10-31T11:58:01.496Z,11.18
2022-10-31T12:01:14.137Z,10.57
2022-10-31T12:04:20.217Z,8.27
2022-10-31T12:07:33.423Z,8.43
2022-10-31T12:10:42.136Z,8.85
2022-10-31T12:13:59.864Z,9.07
2022-10-31T12:17:21.257Z,10.07
2022-10-31T12:20:30.814Z,10.10
2022-10-31T12:23:49.158Z,10.13
2022-10-31T12:27:01.071Z,9.48
2022-10-31T12:30:19.935Z,9.32
2022-10-31T12:33:33.433Z,9.27
2022-10-31T12:36:44.493Z,8.25
2022-10-31T12:39:58.535Z,9.65
2022-10-31T12:43:12.394Z,7.97
2022-10-31T12:46:25.268Z,7.60
2022-10-31T12:52:44.981Z,7.80
2022-10-31T12:59:00.205Z,8.32
2022-10-31T13:02:15.101Z,7.47
2022-10-31T13:05:23.626Z,8.77
2022-10-31T13:08:31.617Z,8.07
2022-10-31T13:11:39.645Z,7.80
2022-10-31T13:14:51.769Z,5.97
2022-10-31T13:17:59.277Z,6.35
2022-10-31T13:21:08.220Z,6.13
2022-10-31T13:24:17.953Z,5.95
2022-10-31T13:27:27.338Z,4.90
2022-10-31T13:30:45.407Z,5.97
2022-10-31T13:33:52.173Z,5.85
2022-10-31T13:37:04.248Z,7.47
2022-10-31T13:40:22.534Z,8.23
2022-10-31T13:43:36.973Z,8.00
2022-10-31T13:46:47.271Z,8.77
2022-10-31T13:49:53.349Z,7.72
2022-10-31T13:53:14.933Z,8.80
2022-10-31T13:56:25.442Z,9.23
2022-10-31T13:59:32.317Z,8.98
2022-10-31T14:02:49.581Z,7.68
2022-10-31T14:05:58.664Z,8.25
2022-10-31T14:09:11.995Z,8.02
2022-10-31T14:12:31.494Z,8.63
2022-10-31T14:15:37.194Z,8.07
2022-10-31T14:18:53.229Z,9.98
2022-10-31T14:22:02.127Z,8.70
2022-10-31T14:25:28.676Z,8.73
2022-10-31T14:28:36.369Z,10.15
2022-10-31T14:31:42.614Z,11.32
2022-10-31T14:34:59.509Z,10.80
2022-10-31T14:38:10.851Z,8.48
2022-10-31T14:41:34.134Z,9.80
2022-10-31T14:44:55.017Z,8.90
2022-10-31T14:48:08.173Z,8.27
2022-10-31T14:51:18.743Z,6.70
2022-10-31T14:54:29.325Z,8.27
2022-10-31T14:57:39.020Z,6.93
2022-10-31T15:00:51.902Z,5.72
2022-10-31T15:04:21.790Z,5.65
2022-10-31T15:07:28.088Z,5.45
2022-10-31T15:10:36.115Z,7.03
2022-10-31T15:13:45.951Z,5.50
2022-10-31T15:16:52.576Z,5.15
2022-10-31T15:19:59.261Z,4.95
2022-10-31T15:23:10.140Z,5.70
2022-10-31T15:26:20.875Z,6.55
2022-10-31T15:29:30.838Z,6.22
2022-10-31T15:32:47.018Z,6.47
2022-10-31T15:36:00.561Z,6.03
2022-10-31T15:39:13.700Z,5.85
2022-10-31T15:42:23.871Z,6.13
2022-10-31T15:45:31.639Z,5.40
2022-10-31T15:48:37.025Z,6.78
2022-10-31T15:51:44.264Z,7.80
2022-10-31T15:54:55.633Z,6.53
2022-10-31T15:58:03.076Z,6.10
2022-10-31T16:01:09.029Z,4.43
2022-10-31T16:04:25.419Z,3.83
2022-10-31T16:07:33.142Z,4.22
2022-10-31T16:10:41.423Z,4.72
2022-10-31T16:13:55.957Z,4.13
2022-10-31T16:17:02.843Z,4.20
2022-10-31T16:20:09.013Z,3.90
2022-10-31T16:23:19.599Z,4.57
2022-10-31T16:26:28.326Z,3.22
2022-10-31T16:29:37.080Z,3.70
2022-10-31T16:32:57.705Z,3.47
2022-10-31T16:36:30.089Z,3.60
2022-10-31T16:39:36.996Z,3.85
2022-10-31T16:42:45.161Z,4.05
2022-10-31T16:45:51.005Z,4.47
2022-10-31T16:48:58.999Z,4.55
2022-10-31T16:52:07.131Z,4.20
2022-10-31T16:55:14.802Z,4.75
2022-10-31T16:58:26.137Z,4.80
2022-10-31T17:01:32.402Z,5.10
2022-10-31T17:04:40.960Z,5.07
2022-10-31T17:07:48.625Z,6.88
2022-10-31T17:11:00.595Z,8.93
2022-10-31T17:14:10.556Z,9.23
2022-10-31T17:17:15.593Z,8.77
2022-10-31T17:20:22.963Z,7.75
2022-10-31T17:23:33.427Z,8.40
2022-10-31T17:26:38.937Z,9.35
2022-10-31T17:29:46.747Z,7.97
2022-10-31T17:32:53.142Z,8.77
2022-10-31T17:35:58.565Z,9.05
2022-10-31T17:39:05.611Z,8.98
2022-10-31T17:42:12.953Z,9.40
2022-10-31T17:45:24.813Z,8.88
2022-10-31T17:48:30.684Z,9.45
2022-10-31T17:51:45.115Z,8.32
2022-10-31T17:54:53.446Z,7.22
2022-10-31T17:57:59.479Z,6.45
2022-10-31T18:01:14.159Z,6.72
2022-10-31T18:04:22.178Z,7.30
2022-10-31T18:07:31.857Z,7.97
2022-10-31T18:10:44.116Z,8.10
2022-10-31T18:14:01.593Z,7.53
2022-10-31T18:17:11.413Z,7.90
2022-10-31T18:20:16.783Z,8.48
2022-10-31T18:23:22.613Z,7.63
2022-10-31T18:26:31.477Z,7.80
2022-10-31T18:29:39.338Z,7.38
2022-10-31T18:32:47.760Z,8.50
2022-10-31T18:36:00.355Z,7.25
2022-10-31T18:39:05.899Z,7.95
2022-10-31T18:42:18.265Z,7.68
2022-10-31T18:45:45.905Z,8.05
2022-10-31T18:48:56.841Z,8.80
2022-10-31T18:52:02.847Z,7.20
2022-10-31T18:55:09.138Z,8.50
2022-10-31T18:58:17.345Z,8.73
2022-10-31T19:01:23.772Z,10.43
2022-10-31T19:04:31.814Z,9.45
2022-10-31T19:07:37.732Z,9.25
2022-10-31T19:10:43.113Z,10.07
2022-10-31T19:13:49.166Z,10.07
2022-10-31T19:17:01.194Z,10.45
2022-10-31T19:20:15.121Z,10.18
2022-10-31T19:23:20.975Z,8.95
2022-10-31T19:26:28.299Z,11.88
2022-10-31T19:29:34.040Z,9.90
2022-10-31T19:32:39.837Z,11.75
2022-10-31T19:35:48.932Z,10.65
2022-10-31T19:38:56.925Z,12.45
2022-10-31T19:42:03.479Z,11.75
2022-10-31T19:45:09.862Z,10.50
2022-10-31T19:48:15.226Z,9.88
2022-10-31T19:51:24.751Z,11.00
2022-10-31T19:54:30.226Z,10.27
2022-10-31T20:01:02.962Z,9.93
2022-10-31T20:04:08.452Z,10.82
2022-10-31T20:07:19.456Z,11.10
2022-10-31T20:10:25.274Z,13.35
2022-10-31T20:13:31.076Z,11.60
2022-10-31T20:16:39.197Z,12.65
2022-10-31T20:19:48.745Z,13.38
2022-10-31T20:22:56.817Z,15.60
2022-10-31T20:26:01.805Z,12.82
2022-10-31T20:29:08.876Z,12.77
2022-10-31T20:32:14.018Z,9.90
2022-10-31T20:35:21.344Z,9.35
2022-10-31T20:38:30.434Z,8.85
2022-10-31T20:41:39.485Z,8.82
2022-10-31T20:44:45.332Z,9.18
2022-10-31T20:47:50.810Z,9.93
2022-10-31T20:50:58.561Z,8.63
2022-10-31T20:54:08.201Z,9.40
2022-10-31T20:57:13.612Z,9.60
2022-10-31T21:00:19.556Z,8.88
2022-10-31T21:03:26.070Z,9.63
2022-10-31T21:06:32.026Z,8.95
2022-10-31T21:09:40.983Z,8.98
2022-10-31T21:12:47.218Z,9.30
2022-10-31T21:16:02.215Z,8.07
2022-10-31T21:19:08.070Z,9.27
2022-10-31T21:22:21.023Z,9.15
2022-10-31T21:25:29.707Z,8.90
2022-10-31T21:28:38.183Z,9.07
2022-10-31T21:31:44.273Z,10.63
2022-10-31T21:34:53.081Z,11.90
2022-10-31T21:37:58.711Z,10.55
2022-10-31T21:41:07.368Z,9.82
2022-10-31T21:44:14.146Z,10.07
2022-10-31T21:47:19.926Z,9.15
2022-10-31T21:50:26.333Z,11.40
2022-10-31T21:53:46.023Z,10.15
2022-10-31T21:56:55.837Z,10.35
2022-10-31T22:00:00.793Z,10.38
2022-10-31T22:03:06.497Z,10.07
2022-10-31T22:06:12.261Z,10.52
2022-10-31T22:09:19.892Z,11.15
2022-10-31T22:12:30.218Z,10.52
2022-10-31T22:15:40.916Z,12.30
2022-10-31T22:18:46.355Z,10.60
2022-10-31T22:21:55.757Z,9.60
2022-10-31T22:25:00.991Z,9.43
2022-10-31T22:28:09.461Z,10.27
2022-10-31T22:31:15.523Z,10.45
2022-10-31T22:34:23.699Z,11.73
2022-10-31T22:37:29.002Z,10.75
2022-10-31T22:40:38.919Z,10.88
2022-10-31T22:43:47.853Z,10.20
2022-10-31T22:46:53.527Z,10.13
2022-10-31T22:49:58.537Z,7.97
2022-10-31T22:53:03.871Z,8.95
2022-10-31T22:56:10.928Z,8.30
2022-10-31T22:59:26.579Z,10.02
2022-10-31T23:02:32.739Z,10.60
2022-10-31T23:05:38.577Z,13.45
2022-10-31T23:08:43.743Z,14.27
2022-10-31T23:11:50.787Z,15.82
2022-10-31T23:14:56.154Z,11.07
2022-10-31T23:18:08.194Z,7.30
2022-10-31T23:21:32.860Z,7.35
2022-10-31T23:24:42.653Z,6.95
2022-10-31T23:27:50.169Z,6.70
2022-10-31T23:30:58.568Z,5.65
2022-10-31T23:34:03.954Z,6.60
2022-10-31T23:37:09.699Z,5.50
2022-10-31T23:40:15.129Z,5.82
2022-10-31T23:43:20.762Z,6.25
2022-10-31T23:46:28.584Z,7.05
2022-10-31T23:49:33.983Z,8.15
2022-10-31T23:52:40.604Z,8.00
2022-10-31T23:55:46.272Z,7.22
2022-10-31T23:58:51.234Z,7.90
